Terminal Aerodrome Forecast
Issued by NWS

Home | Current Version | Previous Version | Text Only | Print | Product List | Glossary On
Versions: 1 2 3 4 5 6 7 8 9 10 11 12 13 14 15
000
FTUS41 KPBZ 252324
TAFLBE
TAF
KLBE 252324Z 2600/2624 34008KT P6SM OVC100
     FM260100 09005KT P6SM -SHRA OVC060
     FM260500 03004KT P6SM BKN080
     FM261400 04005KT P6SM BKN050=

USA.gov is the U.S. government's official web portal to all federal, state and local government web resources and services.